createdAt,value
2023-05-13T00:00:09.903Z,3.83
2023-05-13T00:01:14.105Z,4.15
2023-05-13T00:02:16.094Z,4.07
2023-05-13T00:03:18.137Z,4.60
2023-05-13T00:04:20.017Z,4.20
2023-05-13T00:05:22.934Z,4.57
2023-05-13T00:06:25.617Z,4.30
2023-05-13T00:07:32.395Z,4.40
2023-05-13T00:08:34.360Z,4.40
2023-05-13T00:09:36.373Z,4.25
2023-05-13T00:10:39.087Z,4.30
2023-05-13T00:11:42.207Z,4.45
2023-05-13T00:12:44.550Z,4.47
2023-05-13T00:13:46.461Z,4.38
2023-05-13T00:14:49.759Z,4.50
2023-05-13T00:15:59.402Z,4.82
2023-05-13T00:17:04.907Z,4.35
2023-05-13T00:18:08.663Z,4.22
2023-05-13T00:19:12.276Z,4.50
2023-05-13T00:20:14.218Z,4.18
2023-05-13T00:21:16.377Z,4.90
2023-05-13T00:22:18.355Z,4.57
2023-05-13T00:23:20.651Z,4.97
2023-05-13T00:24:23.030Z,4.50
2023-05-13T00:25:24.986Z,4.63
2023-05-13T00:26:26.840Z,4.60
2023-05-13T00:27:28.687Z,4.65
2023-05-13T00:28:32.448Z,4.72
2023-05-13T00:29:35.329Z,4.45
2023-05-13T00:30:37.680Z,4.53
2023-05-13T00:31:40.118Z,5.18
2023-05-13T00:32:41.994Z,5.00
2023-05-13T00:33:43.931Z,4.70
2023-05-13T00:34:46.132Z,4.57
2023-05-13T00:35:48.236Z,5.07
2023-05-13T00:36:51.123Z,4.85
2023-05-13T00:37:53.326Z,4.32
2023-05-13T00:38:55.657Z,4.95
2023-05-13T00:39:57.600Z,4.43
2023-05-13T00:41:01.762Z,4.75
2023-05-13T00:42:05.523Z,4.55
2023-05-13T00:43:10.653Z,4.75
2023-05-13T00:44:14.478Z,4.40
2023-05-13T00:45:16.900Z,4.70
2023-05-13T00:46:18.789Z,4.05
2023-05-13T00:47:21.338Z,4.82
2023-05-13T00:48:26.288Z,4.63
2023-05-13T00:50:45.004Z,4.40
2023-05-13T00:51:52.252Z,4.50
2023-05-13T00:52:54.451Z,4.50
2023-05-13T00:54:01.106Z,4.45
2023-05-13T00:55:03.944Z,4.40
2023-05-13T00:56:07.467Z,4.70
2023-05-13T00:57:09.266Z,4.90
2023-05-13T00:58:11.818Z,4.30
2023-05-13T00:59:14.000Z,4.90
2023-05-13T01:00:19.341Z,4.97
2023-05-13T01:01:33.834Z,4.93
2023-05-13T01:02:58.224Z,4.97
2023-05-13T01:04:18.682Z,5.20
2023-05-13T01:05:33.162Z,5.25
2023-05-13T01:06:45.198Z,4.90
2023-05-13T01:07:55.071Z,5.13
2023-05-13T01:09:16.045Z,4.90
2023-05-13T01:10:30.259Z,5.50
2023-05-13T01:11:37.710Z,4.80
2023-05-13T01:12:41.000Z,4.78
2023-05-13T01:13:45.849Z,4.90
2023-05-13T01:14:54.750Z,4.88
2023-05-13T01:16:00.153Z,5.15
2023-05-13T01:17:05.669Z,5.38
2023-05-13T01:18:10.665Z,5.15
2023-05-13T01:19:30.578Z,4.93
2023-05-13T01:20:35.936Z,5.05
2023-05-13T01:21:39.289Z,5.18
2023-05-13T01:22:41.452Z,5.22
2023-05-13T01:23:43.251Z,5.28
2023-05-13T01:24:47.794Z,4.72
2023-05-13T01:25:50.942Z,4.80
2023-05-13T01:26:52.799Z,4.88
2023-05-13T01:27:55.075Z,4.80
2023-05-13T01:28:57.152Z,4.97
2023-05-13T01:29:59.158Z,4.85
2023-05-13T01:31:02.393Z,5.10
2023-05-13T01:32:06.858Z,5.55
2023-05-13T01:33:09.013Z,5.00
2023-05-13T01:34:12.117Z,4.72
2023-05-13T01:35:16.745Z,5.47
2023-05-13T01:36:18.733Z,5.35
2023-05-13T01:37:23.220Z,5.45
2023-05-13T01:38:25.724Z,5.10
2023-05-13T01:39:28.734Z,5.22
2023-05-13T01:40:33.254Z,5.18
2023-05-13T01:41:35.686Z,4.93
2023-05-13T01:42:38.005Z,5.22
2023-05-13T01:43:39.909Z,5.05
2023-05-13T01:44:41.783Z,5.22
2023-05-13T01:45:45.132Z,5.30
2023-05-13T01:46:48.194Z,4.72
2023-05-13T01:47:50.130Z,5.22
2023-05-13T01:48:52.103Z,4.90
2023-05-13T01:49:53.820Z,4.90
2023-05-13T01:50:56.315Z,5.28
2023-05-13T01:51:58.239Z,5.30
2023-05-13T01:53:00.558Z,5.28
2023-05-13T01:54:05.543Z,4.85
2023-05-13T01:55:08.147Z,5.70
2023-05-13T01:56:11.550Z,4.68
2023-05-13T01:57:13.380Z,4.70
2023-05-13T01:58:18.133Z,5.30
2023-05-13T01:59:22.151Z,4.95
2023-05-13T02:00:24.446Z,5.00
2023-05-13T02:01:27.200Z,5.05
2023-05-13T02:02:29.025Z,4.93
2023-05-13T02:03:34.499Z,4.78
2023-05-13T02:04:37.658Z,5.00
2023-05-13T02:05:40.149Z,5.13
2023-05-13T02:06:43.074Z,5.28
2023-05-13T02:07:45.465Z,5.45
2023-05-13T02:08:47.467Z,5.18
2023-05-13T02:09:49.651Z,5.32
2023-05-13T02:10:57.949Z,5.07
2023-05-13T02:12:00.613Z,5.10
2023-05-13T02:13:06.757Z,5.47
2023-05-13T02:14:10.769Z,4.97
2023-05-13T02:15:13.382Z,5.40
2023-05-13T02:16:16.940Z,5.43
2023-05-13T02:17:27.562Z,5.40
2023-05-13T02:18:29.461Z,4.95
2023-05-13T02:19:31.417Z,4.82
2023-05-13T02:20:33.398Z,5.05
2023-05-13T02:21:36.235Z,5.32
2023-05-13T02:22:38.106Z,5.38
2023-05-13T02:23:40.068Z,5.30
2023-05-13T02:24:43.768Z,5.00
2023-05-13T02:25:46.151Z,5.20
2023-05-13T02:26:48.021Z,5.20
2023-05-13T02:27:49.864Z,5.03
2023-05-13T02:28:51.675Z,5.28
2023-05-13T02:29:53.458Z,4.70
2023-05-13T02:30:55.376Z,5.10
2023-05-13T02:31:57.349Z,5.40
2023-05-13T02:32:59.388Z,5.28
2023-05-13T02:34:02.468Z,4.90
2023-05-13T02:35:04.919Z,5.10
2023-05-13T02:36:08.857Z,5.00
2023-05-13T02:37:11.562Z,5.20
2023-05-13T02:38:21.144Z,4.78
2023-05-13T02:39:26.980Z,4.95
2023-05-13T02:40:31.724Z,5.20
2023-05-13T02:41:34.126Z,5.18
2023-05-13T02:42:36.337Z,5.38
2023-05-13T02:43:38.198Z,5.43
2023-05-13T02:44:41.119Z,4.90
2023-05-13T02:45:43.541Z,5.03
2023-05-13T02:46:45.848Z,5.15
2023-05-13T02:47:47.709Z,5.32
2023-05-13T02:48:53.470Z,5.20
2023-05-13T02:49:56.713Z,4.88
2023-05-13T02:50:58.997Z,5.32
2023-05-13T02:52:00.877Z,4.75
2023-05-13T02:53:02.749Z,5.40
2023-05-13T02:54:05.812Z,5.45
2023-05-13T02:55:08.366Z,4.70
2023-05-13T02:56:10.217Z,5.13
2023-05-13T02:57:12.135Z,5.43
2023-05-13T02:58:13.953Z,4.90
2023-05-13T02:59:16.142Z,4.68
2023-05-13T03:00:18.130Z,4.95
2023-05-13T03:01:19.999Z,5.10
2023-05-13T03:02:22.352Z,4.90
2023-05-13T03:03:24.259Z,4.95
2023-05-13T03:04:26.261Z,4.75
2023-05-13T03:05:31.027Z,5.38
2023-05-13T03:06:32.977Z,4.97
2023-05-13T03:07:35.138Z,4.60
2023-05-13T03:08:36.786Z,4.60
2023-05-13T03:09:42.487Z,4.60
2023-05-13T03:10:44.676Z,4.50
2023-05-13T03:11:46.585Z,5.18
2023-05-13T03:12:48.439Z,4.50
2023-05-13T03:13:50.343Z,5.10
2023-05-13T03:14:52.291Z,4.53
2023-05-13T03:15:53.974Z,4.82
2023-05-13T03:16:55.674Z,5.07
2023-05-13T03:17:58.059Z,4.97
2023-05-13T03:18:59.888Z,4.50
2023-05-13T03:20:01.602Z,4.95
2023-05-13T03:21:03.465Z,4.70
2023-05-13T03:22:05.842Z,5.05
2023-05-13T03:23:07.635Z,4.90
2023-05-13T03:24:09.364Z,4.78
2023-05-13T03:25:11.122Z,5.05
2023-05-13T03:26:12.785Z,4.60
2023-05-13T03:27:14.478Z,5.07
2023-05-13T03:28:16.370Z,5.10
2023-05-13T03:29:18.132Z,5.07
2023-05-13T03:30:19.945Z,5.22
2023-05-13T03:31:21.851Z,5.10
2023-05-13T03:32:25.554Z,5.45
2023-05-13T03:33:29.471Z,5.22
2023-05-13T03:34:31.096Z,5.03
2023-05-13T03:35:32.879Z,4.85
2023-05-13T03:36:34.616Z,4.88
2023-05-13T03:37:37.576Z,5.15
2023-05-13T03:38:39.352Z,5.40
2023-05-13T03:39:41.075Z,4.72
2023-05-13T03:40:42.811Z,5.15
2023-05-13T03:41:45.941Z,4.72
2023-05-13T03:42:47.674Z,4.45
2023-05-13T03:43:49.429Z,4.95
2023-05-13T03:44:52.284Z,4.40
2023-05-13T03:45:54.133Z,5.10
2023-05-13T03:46:56.276Z,4.80
2023-05-13T03:47:58.112Z,4.95
2023-05-13T03:49:00.442Z,4.40
2023-05-13T03:50:01.995Z,4.40
2023-05-13T03:51:03.903Z,4.35
2023-05-13T03:52:08.103Z,4.63
2023-05-13T03:53:10.890Z,4.65
2023-05-13T03:54:12.699Z,4.70
2023-05-13T03:55:15.310Z,4.93
2023-05-13T03:56:17.225Z,4.73
2023-05-13T03:57:19.148Z,5.07
2023-05-13T03:58:23.210Z,4.65
2023-05-13T03:59:24.846Z,4.40
2023-05-13T04:00:26.625Z,4.63
2023-05-13T04:01:28.889Z,4.90
2023-05-13T04:02:30.805Z,4.47
2023-05-13T04:03:36.822Z,4.57
2023-05-13T04:04:39.103Z,4.90
2023-05-13T04:05:41.088Z,4.60
2023-05-13T04:06:43.006Z,4.43
2023-05-13T04:07:44.664Z,4.80
2023-05-13T04:08:47.507Z,4.55
2023-05-13T04:09:49.307Z,4.80
2023-05-13T04:10:53.575Z,4.93
2023-05-13T04:11:55.301Z,4.65
2023-05-13T04:12:57.453Z,4.32
2023-05-13T04:13:59.191Z,4.75
2023-05-13T04:15:00.954Z,5.15
2023-05-13T04:16:02.932Z,4.40
2023-05-13T04:17:04.856Z,4.70
2023-05-13T04:18:07.038Z,4.82
2023-05-13T04:19:08.881Z,4.57
2023-05-13T04:20:11.193Z,4.45
2023-05-13T04:21:13.072Z,4.60
2023-05-13T04:22:14.862Z,4.28
2023-05-13T04:23:16.499Z,4.45
2023-05-13T04:24:18.086Z,4.60
2023-05-13T04:25:19.889Z,4.22
2023-05-13T04:26:22.306Z,4.30
2023-05-13T04:27:24.473Z,4.15
2023-05-13T04:28:27.709Z,4.45
2023-05-13T04:29:30.148Z,4.55
2023-05-13T04:30:32.409Z,4.82
2023-05-13T04:31:34.233Z,4.07
2023-05-13T04:32:36.569Z,4.50
2023-05-13T04:33:38.201Z,4.43
2023-05-13T04:34:40.172Z,4.18
2023-05-13T04:35:42.204Z,4.47
2023-05-13T04:36:44.677Z,4.32
2023-05-13T04:37:46.485Z,4.72
2023-05-13T04:38:48.212Z,4.32
2023-05-13T04:39:53.006Z,4.30
2023-05-13T04:40:54.857Z,4.40
2023-05-13T04:41:56.539Z,4.40
2023-05-13T04:42:58.245Z,4.47
2023-05-13T04:43:59.927Z,4.03
2023-05-13T04:45:01.649Z,4.40
2023-05-13T04:46:03.463Z,4.57
2023-05-13T04:47:06.692Z,4.57
2023-05-13T04:48:09.271Z,4.60
2023-05-13T04:49:11.099Z,5.28
2023-05-13T04:50:13.162Z,4.70
2023-05-13T04:51:16.454Z,4.78
2023-05-13T04:52:19.891Z,5.00
2023-05-13T04:53:21.651Z,4.95
2023-05-13T04:54:23.603Z,4.22
2023-05-13T04:55:27.554Z,4.47
2023-05-13T04:56:29.610Z,4.65
2023-05-13T04:57:32.887Z,5.00
2023-05-13T04:58:34.601Z,4.85
2023-05-13T04:59:36.839Z,4.80
2023-05-13T05:00:38.499Z,4.63
2023-05-13T05:01:40.349Z,4.45
2023-05-13T05:02:42.598Z,4.63
2023-05-13T05:03:44.403Z,4.55
2023-05-13T05:04:48.693Z,4.10
2023-05-13T05:05:50.508Z,4.32
2023-05-13T05:06:52.275Z,4.50
2023-05-13T05:07:54.273Z,4.50
2023-05-13T05:08:56.204Z,4.50
2023-05-13T05:09:57.901Z,4.68
2023-05-13T05:11:00.338Z,5.35
2023-05-13T05:12:02.198Z,4.93
2023-05-13T05:13:03.831Z,4.75
2023-05-13T05:14:05.533Z,4.72
2023-05-13T05:15:11.496Z,5.00
2023-05-13T05:16:13.038Z,5.13
2023-05-13T05:17:14.695Z,4.15
2023-05-13T05:18:16.892Z,4.63
2023-05-13T05:19:24.141Z,4.25
2023-05-13T05:20:25.957Z,4.30
2023-05-13T05:21:27.557Z,4.15
2023-05-13T05:22:29.527Z,4.45
2023-05-13T05:23:31.414Z,4.32
2023-05-13T05:24:33.692Z,4.43
2023-05-13T05:25:35.565Z,4.28
2023-05-13T05:26:37.136Z,4.47
2023-05-13T05:27:38.773Z,4.57
2023-05-13T05:28:42.165Z,4.95
2023-05-13T05:29:44.084Z,4.18
2023-05-13T05:30:45.806Z,4.22
2023-05-13T05:31:47.656Z,4.45
2023-05-13T05:32:49.405Z,4.47
2023-05-13T05:33:51.093Z,4.03
2023-05-13T05:34:52.642Z,4.47
2023-05-13T05:35:54.321Z,4.07
2023-05-13T05:36:56.368Z,4.47
2023-05-13T05:37:57.926Z,4.25
2023-05-13T05:39:01.113Z,4.50
2023-05-13T05:40:02.693Z,4.60
2023-05-13T05:41:06.970Z,4.63
2023-05-13T05:42:09.096Z,4.45
2023-05-13T05:43:13.912Z,4.70
2023-05-13T05:44:15.443Z,4.57
2023-05-13T05:45:17.320Z,4.45
2023-05-13T05:46:18.929Z,4.72
2023-05-13T05:47:21.342Z,4.50
2023-05-13T05:48:23.026Z,4.30
2023-05-13T05:49:24.596Z,4.45
2023-05-13T05:50:26.280Z,4.32
2023-05-13T05:51:27.827Z,4.20
2023-05-13T05:52:29.487Z,4.30
2023-05-13T05:53:32.257Z,4.35
2023-05-13T05:54:33.782Z,4.30
2023-05-13T05:55:35.385Z,4.18
2023-05-13T05:56:36.917Z,4.63
2023-05-13T05:57:38.481Z,4.20
2023-05-13T05:58:40.150Z,4.63
2023-05-13T05:59:41.731Z,4.95
2023-05-13T06:00:43.331Z,4.88
2023-05-13T06:01:44.887Z,4.70
2023-05-13T06:02:46.632Z,4.93
2023-05-13T06:03:48.407Z,4.55
2023-05-13T06:04:50.393Z,4.65
2023-05-13T06:05:52.064Z,4.35
2023-05-13T06:06:55.167Z,4.72
2023-05-13T06:07:56.819Z,4.70
2023-05-13T06:08:58.440Z,4.40
2023-05-13T06:09:59.981Z,4.90
2023-05-13T06:11:01.636Z,4.75
2023-05-13T06:12:06.754Z,4.50
2023-05-13T06:13:08.416Z,4.75
2023-05-13T06:14:10.026Z,4.55
2023-05-13T06:15:11.741Z,4.63
2023-05-13T06:16:13.309Z,4.22
2023-05-13T06:17:15.088Z,4.43
2023-05-13T06:18:17.003Z,4.70
2023-05-13T06:19:18.651Z,4.63
2023-05-13T06:20:20.364Z,4.95
2023-05-13T06:21:22.063Z,4.00
2023-05-13T06:22:23.584Z,4.70
2023-05-13T06:23:25.197Z,4.70
2023-05-13T06:24:26.875Z,4.15
2023-05-13T06:25:28.474Z,4.40
2023-05-13T06:26:30.415Z,4.50
2023-05-13T06:27:34.065Z,4.47
2023-05-13T06:28:35.719Z,4.10
2023-05-13T06:29:38.282Z,4.00
2023-05-13T06:30:40.110Z,4.30
2023-05-13T06:31:41.863Z,4.20
2023-05-13T06:32:53.451Z,4.20
2023-05-13T06:34:02.313Z,4.45
2023-05-13T06:35:04.031Z,4.70
2023-05-13T06:36:05.714Z,4.40
2023-05-13T06:37:07.833Z,4.43
2023-05-13T06:38:10.587Z,3.92
2023-05-13T06:39:12.543Z,4.45
2023-05-13T06:40:14.156Z,4.72
2023-05-13T06:41:15.755Z,4.13
2023-05-13T06:42:17.351Z,4.70
2023-05-13T06:43:18.889Z,4.82
2023-05-13T06:44:20.522Z,4.10
2023-05-13T06:45:23.685Z,4.10
2023-05-13T06:47:04.545Z,4.47
2023-05-13T06:48:47.028Z,4.07
2023-05-13T06:50:36.157Z,4.38
2023-05-13T06:51:44.858Z,4.33
2023-05-13T06:52:47.042Z,4.30
2023-05-13T06:54:01.276Z,3.95
2023-05-13T06:55:03.817Z,3.92
2023-05-13T06:56:06.333Z,4.13
2023-05-13T06:57:11.176Z,4.38
2023-05-13T06:59:35.800Z,4.80
2023-05-13T07:00:46.745Z,3.95
2023-05-13T07:01:49.070Z,3.70
2023-05-13T07:02:51.445Z,3.80
2023-05-13T07:03:58.261Z,3.75
2023-05-13T07:05:01.672Z,3.72
2023-05-13T07:06:05.115Z,3.92
2023-05-13T07:07:07.374Z,3.92
2023-05-13T07:08:09.851Z,4.30
2023-05-13T07:09:14.147Z,4.03
2023-05-13T07:10:17.934Z,4.07
2023-05-13T07:11:21.483Z,3.60
2023-05-13T07:12:26.083Z,3.50
2023-05-13T07:13:27.948Z,3.63
2023-05-13T07:14:30.248Z,9.75
2023-05-13T07:15:32.208Z,3.80
2023-05-13T07:16:37.147Z,3.60
2023-05-13T07:17:39.502Z,3.67
2023-05-13T07:18:41.713Z,3.75
2023-05-13T07:19:49.992Z,3.63
2023-05-13T07:20:52.951Z,4.22
2023-05-13T07:22:00.069Z,3.78
2023-05-13T07:23:13.387Z,3.42
2023-05-13T07:24:17.277Z,3.35
2023-05-13T07:25:29.486Z,3.55
2023-05-13T07:26:32.115Z,3.75
2023-05-13T07:27:54.006Z,3.30
2023-05-13T07:29:37.006Z,3.13
2023-05-13T07:30:57.178Z,3.08
2023-05-13T07:32:12.654Z,3.00
2023-05-13T07:33:43.266Z,3.08
2023-05-13T07:34:46.837Z,3.40
2023-05-13T07:35:50.798Z,2.88
2023-05-13T07:36:53.024Z,2.70
2023-05-13T07:37:57.916Z,3.00
2023-05-13T07:39:09.622Z,2.67
2023-05-13T07:40:22.591Z,3.13
2023-05-13T07:41:35.258Z,2.92
2023-05-13T07:42:37.851Z,2.92
2023-05-13T07:43:43.216Z,2.85
2023-05-13T07:44:59.672Z,2.42
2023-05-13T07:46:06.632Z,3.55
2023-05-13T07:47:13.637Z,2.90
2023-05-13T07:48:26.880Z,2.97
2023-05-13T07:49:29.350Z,3.70
2023-05-13T07:50:35.576Z,3.13
2023-05-13T07:51:38.136Z,2.60
2023-05-13T07:52:43.498Z,2.83
2023-05-13T07:53:51.996Z,2.42
2023-05-13T07:54:54.858Z,2.30
2023-05-13T07:55:58.146Z,2.20
2023-05-13T07:57:00.352Z,2.35
2023-05-13T07:58:07.900Z,3.10
2023-05-13T07:59:09.874Z,3.10
2023-05-13T08:00:13.052Z,2.95
2023-05-13T08:01:16.914Z,2.20
2023-05-13T08:02:18.894Z,2.70
2023-05-13T08:03:21.184Z,2.97
2023-05-13T08:04:23.815Z,2.40
2023-05-13T08:05:26.194Z,2.08
2023-05-13T08:06:28.198Z,2.20
2023-05-13T08:07:30.125Z,3.08
2023-05-13T08:08:32.214Z,2.50
2023-05-13T08:09:34.239Z,2.00
2023-05-13T08:10:44.735Z,2.53
2023-05-13T08:11:47.096Z,2.80
2023-05-13T08:12:54.302Z,14.38
2023-05-13T08:13:56.657Z,2.30
2023-05-13T08:15:01.634Z,2.00
2023-05-13T08:16:03.859Z,2.20
2023-05-13T08:17:07.194Z,2.35
2023-05-13T08:18:12.373Z,2.10
2023-05-13T08:19:15.863Z,2.40
2023-05-13T08:20:21.309Z,2.20
2023-05-13T08:21:26.392Z,2.03
2023-05-13T08:22:32.298Z,5.30
2023-05-13T08:23:45.287Z,2.15
2023-05-13T08:24:47.608Z,1.83
2023-05-13T08:26:01.714Z,2.30
2023-05-13T08:27:07.901Z,2.10
2023-05-13T08:28:09.909Z,1.95
2023-05-13T08:29:18.079Z,2.10
2023-05-13T08:30:27.370Z,2.20
2023-05-13T08:31:29.977Z,1.95
2023-05-13T08:32:33.162Z,1.95
2023-05-13T08:33:35.823Z,1.98
2023-05-13T08:34:40.568Z,2.20
2023-05-13T08:35:44.789Z,2.22
2023-05-13T08:36:47.349Z,2.10
2023-05-13T08:37:52.108Z,2.00
2023-05-13T08:38:56.611Z,2.00
2023-05-13T08:40:02.254Z,2.20
2023-05-13T08:41:10.744Z,2.10
2023-05-13T08:43:34.263Z,2.22
2023-05-13T08:44:40.705Z,2.33
2023-05-13T08:45:45.280Z,2.45
2023-05-13T08:46:53.406Z,2.30
2023-05-13T08:48:02.890Z,2.17
2023-05-13T08:49:06.348Z,2.30
2023-05-13T08:50:12.489Z,2.30
2023-05-13T08:51:15.407Z,2.47
2023-05-13T08:52:18.650Z,2.30
2023-05-13T08:53:21.742Z,2.22
2023-05-13T08:54:24.513Z,2.17
2023-05-13T08:55:27.079Z,2.28
2023-05-13T08:56:30.093Z,2.90
2023-05-13T08:57:31.830Z,2.10
2023-05-13T08:58:34.552Z,2.55
2023-05-13T08:59:37.993Z,2.40
2023-05-13T09:00:39.997Z,2.30
2023-05-13T09:01:41.944Z,2.58
2023-05-13T09:02:44.918Z,2.28
2023-05-13T09:03:54.353Z,2.58
2023-05-13T09:04:57.947Z,2.40
2023-05-13T09:06:03.553Z,2.63
2023-05-13T09:07:09.153Z,3.10
2023-05-13T09:08:11.267Z,2.40
2023-05-13T09:09:21.728Z,2.50
2023-05-13T09:10:24.426Z,2.40
2023-05-13T09:11:26.568Z,2.90
2023-05-13T09:12:50.213Z,2.47
2023-05-13T09:14:00.281Z,2.65
2023-05-13T09:15:02.103Z,2.70
2023-05-13T09:16:04.074Z,2.58
2023-05-13T09:17:06.308Z,2.40
2023-05-13T09:18:08.568Z,2.53
2023-05-13T09:19:11.698Z,4.85
2023-05-13T09:20:16.976Z,2.40
2023-05-13T09:21:26.423Z,2.70
2023-05-13T09:22:28.650Z,3.85
2023-05-13T09:23:30.790Z,3.10
2023-05-13T09:24:43.764Z,2.70
2023-05-13T09:25:46.367Z,2.50
2023-05-13T09:26:52.056Z,2.72
2023-05-13T09:28:00.842Z,2.45
2023-05-13T09:29:18.172Z,2.70
2023-05-13T09:30:21.008Z,2.63
2023-05-13T09:31:43.401Z,2.70
2023-05-13T09:32:48.822Z,2.72
2023-05-13T09:33:53.445Z,2.20
2023-05-13T09:34:55.484Z,2.63
2023-05-13T09:35:57.786Z,2.63
2023-05-13T09:37:03.341Z,2.78
2023-05-13T09:38:15.182Z,2.47
2023-05-13T09:39:36.144Z,2.72
2023-05-13T09:40:38.460Z,2.42
2023-05-13T09:41:40.228Z,2.28
2023-05-13T09:42:45.547Z,2.20
2023-05-13T09:43:48.344Z,2.70
2023-05-13T09:44:50.275Z,2.30
2023-05-13T09:45:55.415Z,2.22
2023-05-13T09:46:57.400Z,2.15
2023-05-13T09:47:59.261Z,2.50
2023-05-13T09:49:02.520Z,2.63
2023-05-13T09:50:07.203Z,2.33
2023-05-13T09:51:12.922Z,2.03
2023-05-13T09:52:17.146Z,2.47
2023-05-13T09:53:26.224Z,2.17
2023-05-13T09:54:34.650Z,2.65
2023-05-13T09:55:36.583Z,2.45
2023-05-13T09:56:39.980Z,2.28
2023-05-13T09:57:44.028Z,2.33
2023-05-13T09:58:51.246Z,2.15
2023-05-13T09:59:56.771Z,2.50
2023-05-13T10:00:58.769Z,2.58
2023-05-13T10:02:01.375Z,2.83
2023-05-13T10:03:06.538Z,2.33
2023-05-13T10:04:08.600Z,2.30
2023-05-13T10:05:10.350Z,2.85
2023-05-13T10:06:12.842Z,2.47
2023-05-13T10:07:14.779Z,2.55
2023-05-13T10:08:17.739Z,2.08
2023-05-13T10:09:20.380Z,2.45
2023-05-13T10:10:23.349Z,2.63
2023-05-13T10:11:27.489Z,1.98
2023-05-13T10:12:31.056Z,2.17
2023-05-13T10:13:33.399Z,2.40
2023-05-13T10:14:36.934Z,2.22
2023-05-13T10:15:51.778Z,2.65
2023-05-13T10:16:54.935Z,2.20
2023-05-13T10:17:57.789Z,2.38
2023-05-13T10:18:59.966Z,2.20
2023-05-13T10:20:08.594Z,2.15
2023-05-13T10:21:17.185Z,2.72
2023-05-13T10:22:42.129Z,2.25
2023-05-13T10:23:50.381Z,2.30
2023-05-13T10:24:52.966Z,2.50
2023-05-13T10:25:57.185Z,2.50
2023-05-13T10:27:06.135Z,2.00
2023-05-13T10:28:08.702Z,2.47
2023-05-13T10:29:10.996Z,2.40
2023-05-13T10:30:14.160Z,3.72
2023-05-13T10:31:18.778Z,2.80
2023-05-13T10:32:21.248Z,2.10
2023-05-13T10:33:27.616Z,2.40
2023-05-13T10:34:36.814Z,2.35
2023-05-13T10:35:42.126Z,2.22
2023-05-13T10:44:07.235Z,2.47
2023-05-13T10:45:12.024Z,2.60
2023-05-13T10:46:17.298Z,2.33
2023-05-13T10:47:19.006Z,2.83
2023-05-13T10:48:20.924Z,2.10
2023-05-13T10:49:37.559Z,2.80
2023-05-13T10:52:14.373Z,2.78
2023-05-13T10:53:29.234Z,2.67
2023-05-13T10:54:36.401Z,2.30
2023-05-13T10:55:45.454Z,3.10
2023-05-13T10:56:56.014Z,3.65
2023-05-13T10:58:07.545Z,3.35
2023-05-13T10:59:13.160Z,2.40
2023-05-13T11:00:19.324Z,2.20
2023-05-13T11:01:30.925Z,2.50
2023-05-13T11:02:32.994Z,2.53
2023-05-13T11:03:34.827Z,2.30
2023-05-13T11:04:56.372Z,2.47
2023-05-13T11:06:04.841Z,2.17
2023-05-13T11:07:14.683Z,2.30
2023-05-13T11:08:35.808Z,2.28
2023-05-13T11:09:38.567Z,2.53
2023-05-13T11:10:41.241Z,2.70
2023-05-13T11:11:47.301Z,2.20
2023-05-13T11:13:08.082Z,2.10
2023-05-13T11:14:16.071Z,2.08
2023-05-13T11:15:21.798Z,2.20
2023-05-13T11:16:27.398Z,2.20
2023-05-13T11:17:31.096Z,2.28
2023-05-13T11:18:33.766Z,2.30
2023-05-13T11:19:36.856Z,2.08
2023-05-13T11:20:51.723Z,2.30
2023-05-13T11:21:56.511Z,2.10
2023-05-13T11:23:01.524Z,1.98
2023-05-13T11:24:04.389Z,2.28
2023-05-13T11:25:10.587Z,2.08
2023-05-13T11:26:15.037Z,2.03
2023-05-13T11:27:17.750Z,1.90
2023-05-13T11:28:40.438Z,2.20
2023-05-13T11:29:49.433Z,2.35
2023-05-13T11:30:55.889Z,2.25
2023-05-13T11:32:00.848Z,2.20
2023-05-13T11:33:08.558Z,2.10
2023-05-13T11:34:10.217Z,2.13
2023-05-13T11:35:11.975Z,2.38
2023-05-13T11:36:15.186Z,2.13
2023-05-13T11:37:18.895Z,2.10
2023-05-13T11:38:26.236Z,2.38
2023-05-13T11:39:27.972Z,2.10
2023-05-13T11:40:30.042Z,2.13
2023-05-13T11:41:34.811Z,2.25
2023-05-13T11:42:37.188Z,2.10
2023-05-13T11:43:39.807Z,2.00
2023-05-13T11:45:01.338Z,2.10
2023-05-13T11:46:04.743Z,2.70
2023-05-13T11:47:08.555Z,2.30
2023-05-13T11:48:20.584Z,2.20
2023-05-13T11:49:33.331Z,2.20
2023-05-13T11:50:35.639Z,2.20
2023-05-13T11:51:37.367Z,2.40
2023-05-13T11:52:39.077Z,2.33
2023-05-13T11:53:40.780Z,2.15
2023-05-13T11:54:43.428Z,2.45
2023-05-13T11:55:45.697Z,2.67
2023-05-13T11:56:47.885Z,2.40
2023-05-13T11:57:49.919Z,2.57
2023-05-13T11:58:51.539Z,2.38
2023-05-13T12:00:01.299Z,2.90
2023-05-13T12:01:03.168Z,2.88
2023-05-13T12:02:04.958Z,2.80
2023-05-13T12:03:11.973Z,3.15
2023-05-13T12:04:13.817Z,2.80
2023-05-13T12:05:16.270Z,2.70
2023-05-13T12:06:18.427Z,2.72
2023-05-13T12:07:29.116Z,2.70
2023-05-13T12:08:31.027Z,2.70
2023-05-13T12:09:33.310Z,2.42
2023-05-13T12:10:35.431Z,2.75
2023-05-13T12:11:37.559Z,2.30
2023-05-13T12:12:43.441Z,2.60
2023-05-13T12:13:45.068Z,2.60
2023-05-13T12:14:47.522Z,2.50
2023-05-13T12:15:49.850Z,2.70
2023-05-13T12:16:52.127Z,2.40
2023-05-13T12:17:54.954Z,2.20
2023-05-13T12:18:59.564Z,2.22
2023-05-13T12:20:05.896Z,2.20
2023-05-13T12:21:14.267Z,2.00
2023-05-13T12:22:16.746Z,2.35
2023-05-13T12:23:21.534Z,2.58
2023-05-13T12:24:23.449Z,2.20
2023-05-13T12:25:43.594Z,2.30
2023-05-13T12:26:45.298Z,2.40
2023-05-13T12:27:51.580Z,2.60
2023-05-13T12:29:01.093Z,2.83
2023-05-13T12:30:07.702Z,2.50
2023-05-13T12:31:15.844Z,2.00
2023-05-13T12:32:18.579Z,2.40
2023-05-13T12:33:24.285Z,2.17
2023-05-13T12:34:32.750Z,2.10
2023-05-13T12:35:34.386Z,2.55
2023-05-13T12:36:41.479Z,2.60
2023-05-13T12:37:45.122Z,2.35
2023-05-13T12:39:03.050Z,2.20
2023-05-13T12:40:13.541Z,2.00
2023-05-13T12:41:15.180Z,2.50
2023-05-13T12:42:17.659Z,2.53
2023-05-13T12:43:19.853Z,2.00
2023-05-13T12:44:21.859Z,2.10
2023-05-13T12:45:23.679Z,2.20
2023-05-13T12:46:26.231Z,2.33
2023-05-13T12:47:29.297Z,2.03
2023-05-13T12:48:33.132Z,1.90
2023-05-13T12:49:35.147Z,2.08
2023-05-13T12:50:36.834Z,1.73
2023-05-13T12:51:38.471Z,2.05
2023-05-13T12:52:41.205Z,2.03
2023-05-13T12:53:43.036Z,1.90
2023-05-13T12:54:46.203Z,1.80
2023-05-13T12:55:50.320Z,1.95
2023-05-13T12:56:54.149Z,1.88
2023-05-13T12:58:03.279Z,2.30
2023-05-13T12:59:07.189Z,2.30
2023-05-13T13:00:12.449Z,2.03
2023-05-13T13:01:14.268Z,2.22
2023-05-13T13:02:16.497Z,2.38
2023-05-13T13:03:18.336Z,2.10
2023-05-13T13:04:20.640Z,1.70
2023-05-13T13:05:24.078Z,1.95
2023-05-13T13:06:26.459Z,1.75
2023-05-13T13:07:28.067Z,1.97
2023-05-13T13:08:31.253Z,1.90
2023-05-13T13:09:36.153Z,1.95
2023-05-13T13:10:38.067Z,1.90
2023-05-13T13:11:39.768Z,1.95
2023-05-13T13:12:42.080Z,2.10
2023-05-13T13:13:43.843Z,2.00
2023-05-13T13:14:47.628Z,1.88
2023-05-13T13:15:49.249Z,2.00
2023-05-13T13:16:51.203Z,1.90
2023-05-13T13:17:52.938Z,1.80
2023-05-13T13:18:57.338Z,1.70
2023-05-13T13:19:59.930Z,1.70
2023-05-13T13:21:03.467Z,1.80
2023-05-13T13:22:08.343Z,1.80
2023-05-13T13:23:10.796Z,1.70
2023-05-13T13:24:14.773Z,1.60
2023-05-13T13:25:17.641Z,1.73
2023-05-13T13:26:19.618Z,1.90
2023-05-13T13:27:22.729Z,1.80
2023-05-13T13:28:24.348Z,1.63
2023-05-13T13:29:26.038Z,2.00
2023-05-13T13:30:28.403Z,1.70
2023-05-13T13:31:30.091Z,1.67
2023-05-13T13:32:32.007Z,1.98
2023-05-13T13:33:33.628Z,1.70
2023-05-13T13:34:35.308Z,1.70
2023-05-13T13:35:36.927Z,1.50
2023-05-13T13:36:38.587Z,1.50
2023-05-13T13:37:40.299Z,1.60
2023-05-13T13:38:41.936Z,1.60
2023-05-13T13:39:43.571Z,1.65
2023-05-13T13:40:45.157Z,1.70
2023-05-13T13:41:47.473Z,1.70
2023-05-13T13:42:49.107Z,1.60
2023-05-13T13:43:50.792Z,1.70
2023-05-13T13:44:52.403Z,1.65
2023-05-13T13:45:54.408Z,1.60
2023-05-13T13:46:56.028Z,1.80
2023-05-13T13:47:57.961Z,1.60
2023-05-13T13:49:00.859Z,1.70
2023-05-13T13:50:03.766Z,1.50
2023-05-13T13:51:05.511Z,1.80
2023-05-13T13:52:08.304Z,1.50
2023-05-13T13:53:10.004Z,1.48
2023-05-13T13:54:11.716Z,1.90
2023-05-13T13:55:14.683Z,1.80
2023-05-13T13:56:16.435Z,1.50
2023-05-13T13:57:18.367Z,1.60
2023-05-13T13:58:20.120Z,1.58
2023-05-13T13:59:21.699Z,1.77
2023-05-13T14:00:23.553Z,1.90
2023-05-13T14:01:25.444Z,1.70
2023-05-13T14:02:27.144Z,1.65
2023-05-13T14:03:28.997Z,1.15
2023-05-13T14:04:30.928Z,1.75
2023-05-13T14:05:32.583Z,1.60
2023-05-13T14:06:34.230Z,1.65
2023-05-13T14:07:36.547Z,1.80
2023-05-13T14:08:38.468Z,1.45
2023-05-13T14:09:40.045Z,1.80
2023-05-13T14:10:42.439Z,1.75
2023-05-13T14:11:44.061Z,1.63
2023-05-13T14:12:45.836Z,1.50
2023-05-13T14:13:47.546Z,1.63
2023-05-13T14:14:49.176Z,1.77
2023-05-13T14:15:50.830Z,1.90
2023-05-13T14:16:52.973Z,1.40
2023-05-13T14:17:57.814Z,1.38
2023-05-13T14:18:59.475Z,1.50
2023-05-13T14:20:01.471Z,1.42
2023-05-13T14:21:03.900Z,1.50
2023-05-13T14:22:05.556Z,1.52
2023-05-13T14:23:07.137Z,1.40
2023-05-13T14:24:09.466Z,1.33
2023-05-13T14:25:11.116Z,1.40
2023-05-13T14:26:15.885Z,1.30